Time;durP1;ratioP1;P1;durP2;ratioP2;P2;SDS_P1;SDS_P2;PMS_P1;PMS_P2;Temp;Humidity;BMP_temperature;BMP_pressure;BME280_temperature;BME280_humidity;BME280_pressure;Samples;Min_cycle;Max_cycle;Signal;HPM_P1;HPM_P2
2021/05/02 00:00:34;;;;;;;7.60;3.03;;;8.60;98.60;;;;;;5081657;28;20392;-60
2021/05/02 00:03:04;;;;;;;4.23;2.00;;;8.60;98.50;;;;;;5066299;28;20043;-60
2021/05/02 00:05:32;;;;;;;5.97;2.80;;;8.50;98.70;;;;;;5066715;28;20029;-59
2021/05/02 00:07:59;;;;;;;6.73;2.53;;;8.50;99.00;;;;;;5066020;28;20036;-60
2021/05/02 00:10:30;;;;;;;4.37;2.30;;;8.40;99.30;;;;;;5065914;28;20067;-60
2021/05/02 00:12:57;;;;;;;4.10;2.77;;;8.40;99.70;;;;;;5067705;28;20033;-60
2021/05/02 00:15:24;;;;;;;6.30;3.20;;;8.30;99.90;;;;;;5065826;28;20033;-60
2021/05/02 00:17:51;;;;;;;6.07;2.60;;;8.30;99.90;;;;;;5066598;28;20054;-60
2021/05/02 00:20:23;;;;;;;9.77;3.93;;;8.20;99.90;;;;;;5065959;28;20028;-60
2021/05/02 00:22:54;;;;;;;4.93;3.08;;;8.20;99.90;;;;;;5066368;28;20528;-59
2021/05/02 00:25:24;;;;;;;7.37;3.10;;;8.00;99.90;;;;;;5066335;28;22140;-60
2021/05/02 00:27:50;;;;;;;5.47;2.67;;;8.10;99.90;;;;;;5066544;28;20101;-60
2021/05/02 00:30:20;;;;;;;8.03;4.20;;;8.00;99.90;;;;;;5081804;28;20111;-60
2021/05/02 00:32:48;;;;;;;5.97;3.07;;;8.00;99.90;;;;;;5079659;28;20047;-60
2021/05/02 00:35:18;;;;;;;5.67;3.60;;;7.90;99.90;;;;;;5066457;28;20158;-59
2021/05/02 00:37:47;;;;;;;7.40;3.30;;;7.90;99.90;;;;;;5066890;28;20020;-62
2021/05/02 00:40:15;;;;;;;7.40;3.30;;;7.90;99.90;;;;;;5081327;28;20035;-59
2021/05/02 00:42:52;;;;;;;6.80;3.97;;;7.80;99.90;;;;;;5066084;28;20028;-60
2021/05/02 00:45:39;;;;;;;8.13;3.93;;;7.80;99.90;;;;;;5062872;28;20047;-60
2021/05/02 00:48:10;;;;;;;24.43;6.13;;;7.70;99.90;;;;;;5066935;28;20082;-60
2021/05/02 00:50:55;;;;;;;6.47;3.17;;;7.70;99.90;;;;;;5066362;28;20031;-60
2021/05/02 00:53:40;;;;;;;7.50;3.90;;;7.60;99.90;;;;;;5081118;28;20730;-60
2021/05/02 00:56:21;;;;;;;8.60;4.07;;;7.60;99.90;;;;;;5065619;28;20028;-60
2021/05/02 00:58:55;;;;;;;5.40;3.07;;;7.50;99.90;;;;;;5064606;28;20028;-59
2021/05/02 01:01:23;;;;;;;7.73;4.07;;;7.50;99.90;;;;;;5080408;28;20064;-60
2021/05/02 01:03:50;;;;;;;9.33;4.30;;;7.50;99.90;;;;;;5064318;28;20082;-60
2021/05/02 01:06:22;;;;;;;6.47;3.37;;;7.40;99.90;;;;;;5064409;28;20032;-59
2021/05/02 01:08:51;;;;;;;9.57;3.70;;;7.50;99.90;;;;;;5082158;28;20025;-60
2021/05/02 01:11:18;;;;;;;8.07;3.33;;;7.50;99.90;;;;;;5065531;28;20031;-59
2021/05/02 01:13:54;;;;;;;10.00;4.57;;;7.40;99.90;;;;;;5065817;28;20036;-60
2021/05/02 01:16:21;;;;;;;10.83;4.17;;;7.30;99.90;;;;;;5065682;28;20028;-60
2021/05/02 01:18:48;;;;;;;9.87;4.53;;;7.30;99.90;;;;;;5065613;28;20036;-60
2021/05/02 01:21:16;;;;;;;12.47;4.57;;;7.20;99.90;;;;;;5066018;28;20028;-60
2021/05/02 01:23:42;;;;;;;7.27;3.10;;;7.20;99.90;;;;;;5064360;28;20457;-59
2021/05/02 01:26:11;;;;;;;10.30;5.27;;;7.10;99.90;;;;;;5065281;28;20031;-60
2021/05/02 01:28:40;;;;;;;18.43;5.43;;;7.20;99.90;;;;;;5064814;28;21893;-60
2021/05/02 01:31:11;;;;;;;10.37;5.23;;;7.10;99.90;;;;;;5065566;28;20024;-60
2021/05/02 01:33:40;;;;;;;10.60;4.43;;;7.10;99.90;;;;;;5065372;28;20031;-59
2021/05/02 01:36:06;;;;;;;11.37;4.60;;;7.20;99.90;;;;;;5065513;28;20031;-59
2021/05/02 01:38:33;;;;;;;8.93;3.90;;;7.20;99.90;;;;;;5065742;28;20472;-60
2021/05/02 01:40:59;;;;;;;9.87;4.37;;;7.20;99.90;;;;;;5064749;28;20101;-60
2021/05/02 01:43:25;;;;;;;10.43;4.63;;;7.10;99.90;;;;;;5065778;28;20040;-59
2021/05/02 01:45:51;;;;;;;11.17;5.47;;;7.10;99.90;;;;;;5065211;28;20028;-60
2021/05/02 01:48:18;;;;;;;10.83;4.23;;;7.10;99.90;;;;;;5064602;28;20029;-60
2021/05/02 01:50:59;;;;;;;16.40;4.30;;;7.10;99.90;;;;;;5064492;28;20028;-60
2021/05/02 01:53:26;;;;;;;12.43;3.70;;;7.10;99.90;;;;;;5063961;28;20024;-60
2021/05/02 01:55:53;;;;;;;11.00;4.63;;;7.10;99.90;;;;;;5064093;28;20518;-60
2021/05/02 01:58:20;;;;;;;8.30;3.73;;;7.10;99.90;;;;;;5064390;28;20020;-60
2021/05/02 02:00:50;;;;;;;9.43;4.57;;;7.10;99.90;;;;;;5063963;28;20128;-60
2021/05/02 02:03:20;;;;;;;10.80;4.17;;;7.10;99.90;;;;;;5065092;28;20574;-60
2021/05/02 02:05:47;;;;;;;11.83;4.40;;;7.10;99.90;;;;;;5064460;28;20036;-59
2021/05/02 02:08:13;;;;;;;8.57;4.30;;;7.10;99.90;;;;;;5066908;28;20510;-59
2021/05/02 02:10:41;;;;;;;16.40;4.43;;;7.10;99.90;;;;;;5064850;28;20031;-60
2021/05/02 02:13:09;;;;;;;13.13;3.97;;;7.10;99.90;;;;;;5065376;28;20028;-62
2021/05/02 02:15:36;;;;;;;15.20;5.20;;;7.10;99.90;;;;;;5069301;28;20035;-60
2021/05/02 02:18:02;;;;;;;11.53;4.20;;;7.00;99.90;;;;;;5069738;28;20474;-59
2021/05/02 02:20:29;;;;;;;10.77;4.20;;;7.00;99.90;;;;;;5068692;28;20036;-60
2021/05/02 02:23:06;;;;;;;6.57;3.30;;;7.10;99.90;;;;;;5068750;28;20111;-60
2021/05/02 02:25:41;;;;;;;10.90;4.73;;;7.10;99.90;;;;;;5068733;28;20039;-60
2021/05/02 02:28:11;;;;;;;9.67;3.97;;;7.10;99.90;;;;;;5067842;28;20051;-60
2021/05/02 02:30:39;;;;;;;7.90;4.20;;;7.20;99.90;;;;;;5066292;28;20034;-60
2021/05/02 02:33:06;;;;;;;15.63;4.63;;;7.20;99.90;;;;;;5068576;28;20024;-59
2021/05/02 02:35:39;;;;;;;9.73;4.97;;;7.20;99.90;;;;;;5068644;28;20111;-60
2021/05/02 02:38:08;;;;;;;;;;;7.30;99.90;;;;;;5069512;28;20586;-59
2021/05/02 02:40:38;;;;;;;8.47;3.90;;;7.30;99.90;;;;;;5070667;28;19977;-59
2021/05/02 02:43:05;;;;;;;11.97;5.13;;;7.30;99.90;;;;;;5068027;28;20055;-60
2021/05/02 02:45:34;;;;;;;10.73;4.50;;;7.20;99.90;;;;;;5068506;28;20332;-60
2021/05/02 02:48:02;;;;;;;13.63;4.07;;;7.30;99.90;;;;;;5084396;28;20031;-60
2021/05/02 02:50:29;;;;;;;12.40;4.63;;;7.20;99.90;;;;;;5068014;28;20032;-60
2021/05/02 02:53:05;;;;;;;9.40;4.37;;;7.30;99.90;;;;;;5068658;28;20723;-60
2021/05/02 02:55:36;;;;;;;10.73;4.40;;;7.30;99.90;;;;;;5067950;28;20029;-60
2021/05/02 02:58:03;;;;;;;11.53;4.70;;;7.30;99.90;;;;;;5084296;28;20466;-60
2021/05/02 03:00:33;;;;;;;10.47;4.23;;;7.30;99.90;;;;;;5067781;28;20049;-60
2021/05/02 03:03:09;;;;;;;9.07;4.03;;;7.30;99.90;;;;;;5066500;28;20109;-60
2021/05/02 03:05:39;;;;;;;10.97;4.70;;;7.30;99.90;;;;;;5083982;28;20028;-60
2021/05/02 03:08:07;;;;;;;10.87;5.00;;;7.30;99.90;;;;;;5064773;28;20036;-60
2021/05/02 03:10:33;;;;;;;13.60;5.20;;;7.30;99.90;;;;;;5066447;28;20020;-59
2021/05/02 03:13:05;;;;;;;11.87;4.97;;;7.30;99.90;;;;;;5067158;28;20028;-60
2021/05/02 03:15:31;;;;;;;12.98;5.22;;;7.30;99.90;;;;;;5066370;28;20034;-60
2021/05/02 03:18:05;;;;;;;10.03;4.87;;;7.30;99.90;;;;;;5067595;28;20036;-60
2021/05/02 03:20:35;;;;;;;11.50;4.93;;;7.30;99.90;;;;;;5067510;28;20039;-59
2021/05/02 03:23:11;;;;;;;13.97;5.87;;;7.30;99.90;;;;;;5066820;28;20020;-60
2021/05/02 03:25:41;;;;;;;13.20;4.87;;;7.30;99.90;;;;;;5066651;28;20030;-60
2021/05/02 03:28:10;;;;;;;9.73;4.13;;;7.30;99.90;;;;;;5067306;28;20452;-59
2021/05/02 03:30:40;;;;;;;9.77;4.47;;;7.40;99.90;;;;;;5067583;28;20027;-59
2021/05/02 03:33:12;;;;;;;10.17;4.83;;;7.40;99.90;;;;;;5067546;28;20449;-60
2021/05/02 03:35:44;;;;;;;11.30;5.13;;;7.30;99.90;;;;;;5067985;28;20031;-60
2021/05/02 03:38:23;;;;;;;11.32;5.35;;;7.30;99.90;;;;;;5082998;28;20365;-60
2021/05/02 03:40:50;;;;;;;9.80;5.57;;;7.30;99.90;;;;;;5066191;28;20036;-61
2021/05/02 03:43:18;;;;;;;11.07;5.43;;;7.20;99.90;;;;;;5068077;28;20032;-60
2021/05/02 03:45:44;;;;;;;12.23;5.70;;;7.20;99.90;;;;;;5067185;28;20032;-60
2021/05/02 03:48:09;;;;;;;14.77;5.53;;;7.30;99.90;;;;;;5065840;28;20036;-59
2021/05/02 03:50:35;;;;;;;10.93;5.07;;;7.30;99.90;;;;;;5067226;28;20442;-60
2021/05/02 03:53:04;;;;;;;11.90;5.43;;;7.30;99.90;;;;;;5067558;28;20365;-60
2021/05/02 03:55:40;;;;;;;13.07;5.87;;;7.30;99.90;;;;;;5065095;28;20033;-60
2021/05/02 03:58:15;;;;;;;16.73;5.47;;;7.20;99.90;;;;;;5083115;28;20295;-61
2021/05/02 04:00:44;;;;;;;13.03;5.47;;;7.20;99.90;;;;;;5066203;28;20040;-60
2021/05/02 04:03:14;;;;;;;15.77;5.90;;;7.20;99.90;;;;;;5066292;28;20431;-60
2021/05/02 04:05:41;;;;;;;16.43;6.40;;;7.30;99.90;;;;;;5066994;28;20584;-60
2021/05/02 04:08:10;;;;;;;13.03;5.93;;;7.30;99.90;;;;;;5065436;28;20549;-60
2021/05/02 04:10:35;;;;;;;12.83;5.93;;;7.30;99.90;;;;;;5067084;28;20031;-59
2021/05/02 04:13:01;;;;;;;17.83;5.27;;;7.30;99.90;;;;;;5082481;28;20028;-60
2021/05/02 04:15:29;;;;;;;12.30;5.63;;;7.30;99.90;;;;;;5081218;28;20036;-60
2021/05/02 04:17:55;;;;;;;13.20;5.93;;;7.30;99.90;;;;;;5065606;28;21910;-59
2021/05/02 04:20:20;;;;;;;13.37;5.43;;;7.30;99.90;;;;;;5066654;28;20043;-59
2021/05/02 04:22:47;;;;;;;14.07;6.23;;;7.30;99.90;;;;;;5066651;28;20028;-59
2021/05/02 04:25:13;;;;;;;11.53;5.50;;;7.30;99.90;;;;;;5067060;28;20040;-60
2021/05/02 04:27:39;;;;;;;13.30;5.23;;;7.20;99.90;;;;;;5065856;28;20023;-59
2021/05/02 04:30:05;;;;;;;11.07;5.33;;;7.30;99.90;;;;;;5064237;28;20614;-59
2021/05/02 04:32:31;;;;;;;15.73;6.33;;;7.30;99.90;;;;;;5066082;28;20039;-60
2021/05/02 04:34:58;;;;;;;12.20;5.60;;;7.30;99.90;;;;;;5067945;28;20024;-59
2021/05/02 04:37:24;;;;;;;13.20;5.30;;;7.30;99.90;;;;;;5065156;28;20043;-59
2021/05/02 04:39:50;;;;;;;12.37;5.93;;;7.30;99.90;;;;;;5065960;28;20081;-59
2021/05/02 04:42:15;;;;;;;12.70;6.03;;;7.40;99.90;;;;;;5081922;28;20127;-59
2021/05/02 04:44:41;;;;;;;12.00;5.23;;;7.40;99.90;;;;;;5066184;28;20090;-60
2021/05/02 04:47:06;;;;;;;11.53;5.50;;;7.50;99.90;;;;;;5081397;28;20128;-60
2021/05/02 04:49:32;;;;;;;15.53;5.27;;;7.40;99.90;;;;;;5066359;28;20033;-60
2021/05/02 04:51:58;;;;;;;13.17;5.40;;;7.50;99.90;;;;;;5066054;28;20448;-59
2021/05/02 04:54:26;;;;;;;12.17;5.00;;;7.50;99.90;;;;;;5065342;28;20457;-59
2021/05/02 04:56:51;;;;;;;11.20;5.73;;;7.50;99.90;;;;;;5081909;28;20056;-60
2021/05/02 04:59:20;;;;;;;9.70;4.77;;;7.50;99.90;;;;;;5065857;28;20214;-59
2021/05/02 05:01:47;;;;;;;11.07;4.60;;;7.50;99.90;;;;;;5081148;28;20151;-60
2021/05/02 05:04:16;;;;;;;9.37;4.73;;;7.50;99.90;;;;;;5066178;28;20024;-60
2021/05/02 05:06:41;;;;;;;8.80;4.70;;;7.50;99.90;;;;;;5064094;28;20606;-60
2021/05/02 05:09:07;;;;;;;8.60;4.43;;;7.50;99.90;;;;;;5080482;28;20047;-60
2021/05/02 05:11:34;;;;;;;12.17;5.07;;;7.50;99.90;;;;;;5064324;28;20024;-60
2021/05/02 05:13:59;;;;;;;12.40;5.37;;;7.60;99.90;;;;;;5064792;28;20028;-60
2021/05/02 05:16:25;;;;;;;11.67;5.30;;;7.70;99.90;;;;;;5064342;28;20078;-59
2021/05/02 05:18:51;;;;;;;12.43;4.20;;;7.70;99.90;;;;;;5064819;28;20109;-60
2021/05/02 05:21:19;;;;;;;11.43;6.30;;;7.70;99.90;;;;;;5064782;28;20028;-59
2021/05/02 05:23:44;;;;;;;11.77;4.40;;;7.80;99.90;;;;;;5065254;28;20110;-59
2021/05/02 05:26:10;;;;;;;10.30;4.00;;;7.80;99.90;;;;;;5064853;28;20097;-59
2021/05/02 05:28:36;;;;;;;10.63;4.47;;;7.80;99.90;;;;;;5064991;28;20177;-59
2021/05/02 05:31:01;;;;;;;9.90;4.37;;;7.80;99.90;;;;;;5064108;28;20074;-59
2021/05/02 05:33:31;;;;;;;11.07;4.07;;;7.80;99.90;;;;;;5065801;28;20767;-59
2021/05/02 05:35:57;;;;;;;8.13;3.83;;;7.80;99.90;;;;;;5081154;28;20024;-60
2021/05/02 05:38:25;;;;;;;9.20;3.90;;;7.80;99.90;;;;;;5064936;28;20038;-61
2021/05/02 05:40:54;;;;;;;7.07;3.70;;;7.80;99.90;;;;;;5065679;28;20107;-60
2021/05/02 05:43:20;;;;;;;10.60;3.73;;;8.00;99.90;;;;;;5065944;28;20116;-60
2021/05/02 05:45:45;;;;;;;8.30;3.87;;;8.00;99.90;;;;;;5081144;28;20032;-59
2021/05/02 05:48:11;;;;;;;5.10;2.67;;;8.00;99.90;;;;;;5065476;28;20113;-59
2021/05/02 05:50:37;;;;;;;11.50;3.13;;;8.00;99.90;;;;;;5050391;28;21664;-59
2021/05/02 05:53:05;;;;;;;6.13;3.07;;;8.00;99.90;;;;;;5065707;28;20476;-59
2021/05/02 05:55:35;;;;;;;10.13;3.33;;;7.90;99.90;;;;;;5065647;28;20116;-59
2021/05/02 05:58:03;;;;;;;8.70;2.67;;;7.90;99.90;;;;;;5081674;28;20459;-59
2021/05/02 06:00:28;;;;;;;5.27;2.00;;;8.00;99.90;;;;;;5064309;28;20045;-59
2021/05/02 06:02:54;;;;;;;11.07;2.77;;;8.00;99.90;;;;;;5064359;28;20039;-59
2021/05/02 06:05:20;;;;;;;7.20;2.57;;;7.90;99.90;;;;;;5065435;28;20032;-59
2021/05/02 06:07:45;;;;;;;5.63;2.40;;;7.90;99.90;;;;;;5065574;28;20103;-60
2021/05/02 06:10:13;;;;;;;7.73;2.37;;;7.90;99.90;;;;;;5079753;28;20040;-59
2021/05/02 06:12:40;;;;;;;6.60;2.13;;;7.90;99.90;;;;;;5064209;28;20023;-59
2021/05/02 06:15:06;;;;;;;4.87;1.90;;;7.70;99.90;;;;;;5064822;28;20036;-59
2021/05/02 06:17:32;;;;;;;6.97;2.60;;;7.80;99.90;;;;;;5063059;28;20047;-59
2021/05/02 06:19:58;;;;;;;7.03;2.40;;;7.80;99.90;;;;;;5080212;28;20364;-60
2021/05/02 06:22:23;;;;;;;8.70;2.80;;;7.70;99.90;;;;;;5081417;28;20032;-60
2021/05/02 06:24:49;;;;;;;3.43;1.77;;;7.70;99.90;;;;;;5080582;28;20056;-60
2021/05/02 06:27:19;;;;;;;8.40;2.67;;;7.70;99.90;;;;;;5065421;28;20040;-59
2021/05/02 06:29:47;;;;;;;5.50;2.23;;;7.80;99.90;;;;;;5065358;28;20032;-60
2021/05/02 06:32:15;;;;;;;4.67;1.87;;;7.70;99.90;;;;;;5064725;28;20032;-59
2021/05/02 06:34:43;;;;;;;3.33;2.00;;;7.80;99.90;;;;;;5080201;28;20068;-59
2021/05/02 06:37:11;;;;;;;3.13;1.80;;;7.80;99.90;;;;;;5064626;28;20032;-59
2021/05/02 06:39:40;;;;;;;6.00;2.20;;;7.90;99.90;;;;;;5063583;28;20044;-60
2021/05/02 06:42:08;;;;;;;5.57;1.70;;;7.90;99.90;;;;;;5064236;28;20071;-60
2021/05/02 06:44:34;;;;;;;3.60;1.87;;;7.90;99.90;;;;;;5063432;28;20052;-60
2021/05/02 06:46:59;;;;;;;4.90;1.63;;;7.90;99.90;;;;;;5064186;28;20044;-60
2021/05/02 06:49:27;;;;;;;11.57;2.07;;;8.00;99.90;;;;;;5064883;28;20036;-59
2021/05/02 06:51:53;;;;;;;5.43;2.27;;;8.00;99.90;;;;;;5063759;28;20024;-60
2021/05/02 06:54:21;;;;;;;3.33;1.60;;;8.00;99.90;;;;;;5080637;28;20064;-60
2021/05/02 06:56:46;;;;;;;7.10;2.13;;;8.10;99.90;;;;;;5064068;28;20048;-60
2021/05/02 06:59:12;;;;;;;4.30;1.90;;;8.20;99.90;;;;;;5066754;28;20048;-60
2021/05/02 07:01:37;;;;;;;3.60;2.20;;;8.30;99.90;;;;;;5068907;28;20044;-60
2021/05/02 07:04:03;;;;;;;5.97;1.93;;;8.50;99.90;;;;;;5067715;28;20047;-60
2021/05/02 07:06:29;;;;;;;6.47;2.10;;;8.60;99.90;;;;;;5067918;28;20031;-60
2021/05/02 07:08:55;;;;;;;2.97;1.40;;;8.70;99.90;;;;;;5067554;28;20660;-59
2021/05/02 07:11:22;;;;;;;5.80;1.87;;;8.70;99.90;;;;;;5066105;28;20445;-59
2021/05/02 07:13:47;;;;;;;7.00;1.60;;;8.80;99.90;;;;;;5068354;28;20882;-60
2021/05/02 07:16:13;;;;;;;4.53;1.40;;;8.80;99.90;;;;;;5068333;28;20124;-60
2021/05/02 07:18:40;;;;;;;11.47;1.97;;;8.80;99.90;;;;;;5083776;28;20119;-60
2021/05/02 07:21:09;;;;;;;7.00;1.60;;;8.80;99.90;;;;;;5067324;28;20024;-59
2021/05/02 07:23:39;;;;;;;3.47;1.53;;;8.80;99.90;;;;;;5067958;28;20044;-60
2021/05/02 07:26:05;;;;;;;7.17;1.93;;;8.90;99.90;;;;;;5067151;28;20028;-60
2021/05/02 07:28:31;;;;;;;1.90;1.03;;;8.90;99.90;;;;;;5067636;28;20085;-60
2021/05/02 07:30:58;;;;;;;3.13;0.90;;;9.00;99.30;;;;;;5067367;28;20044;-59
2021/05/02 07:33:27;;;;;;;7.80;1.83;;;9.20;97.90;;;;;;5067713;28;20028;-60
2021/05/02 07:35:53;;;;;;;4.43;1.43;;;9.10;97.30;;;;;;5067886;28;20062;-60
2021/05/02 07:38:21;;;;;;;2.37;0.83;;;9.20;97.00;;;;;;5083415;28;20551;-59
2021/05/02 07:40:47;;;;;;;3.73;0.80;;;9.50;96.10;;;;;;5067246;28;20533;-60
2021/05/02 07:43:12;;;;;;;2.63;0.90;;;9.70;95.60;;;;;;5066605;28;20040;-60
2021/05/02 07:45:41;;;;;;;9.70;1.00;;;9.70;94.50;;;;;;5065948;28;21925;-60
2021/05/02 07:48:06;;;;;;;5.57;1.23;;;9.70;94.30;;;;;;5066118;28;20032;-60
2021/05/02 07:50:32;;;;;;;1.90;0.70;;;9.70;93.50;;;;;;5066333;28;20041;-60
2021/05/02 07:52:58;;;;;;;1.07;0.50;;;9.80;92.50;;;;;;5066650;28;20033;-60
2021/05/02 07:55:26;;;;;;;4.50;0.83;;;9.90;91.90;;;;;;5067444;28;20618;-60
2021/05/02 07:57:51;;;;;;;3.17;1.07;;;10.00;92.00;;;;;;5082467;28;20360;-60
2021/05/02 08:00:21;;;;;;;4.37;0.70;;;10.00;91.70;;;;;;5066553;28;20048;-60
2021/05/02 08:02:47;;;;;;;1.80;1.07;;;10.10;91.40;;;;;;5081796;28;20028;-60
2021/05/02 08:05:16;;;;;;;1.90;0.70;;;10.20;91.00;;;;;;5081254;28;20028;-60
2021/05/02 08:07:44;;;;;;;2.33;1.03;;;10.00;86.90;;;;;;5065196;28;20429;-60
2021/05/02 08:10:11;;;;;;;3.00;0.73;;;10.00;90.00;;;;;;5081405;28;20388;-61
2021/05/02 08:12:37;;;;;;;6.17;0.90;;;10.10;88.60;;;;;;5066256;28;20137;-59
2021/05/02 08:15:04;;;;;;;2.73;0.40;;;10.00;89.50;;;;;;5065354;28;20788;-59
2021/05/02 08:17:32;;;;;;;4.23;0.60;;;10.00;88.60;;;;;;5066070;28;20473;-59
2021/05/02 08:19:58;;;;;;;2.47;0.50;;;10.00;89.50;;;;;;5066797;28;20060;-60
2021/05/02 08:22:26;;;;;;;4.53;0.73;;;9.90;90.20;;;;;;5080691;28;20840;-60
2021/05/02 08:24:54;;;;;;;1.97;0.50;;;9.90;89.60;;;;;;5082590;28;20080;-59
2021/05/02 08:27:22;;;;;;;4.00;0.73;;;9.90;89.70;;;;;;5066172;28;20036;-60
2021/05/02 08:29:48;;;;;;;5.57;0.70;;;10.00;90.20;;;;;;5066986;28;20028;-59
2021/05/02 08:32:13;;;;;;;5.63;0.93;;;10.10;90.60;;;;;;5066625;28;20032;-60
2021/05/02 08:34:39;;;;;;;2.30;0.80;;;10.20;90.50;;;;;;5065709;28;20543;-60
2021/05/02 08:37:06;;;;;;;1.70;0.73;;;10.20;90.80;;;;;;5066795;28;20037;-60
2021/05/02 08:39:35;;;;;;;2.40;0.80;;;10.40;91.00;;;;;;5066332;28;20040;-59
2021/05/02 08:42:05;;;;;;;1.70;0.70;;;10.60;90.20;;;;;;5065028;28;20058;-59
2021/05/02 08:44:32;;;;;;;1.73;0.70;;;10.90;87.20;;;;;;5066454;28;20119;-59
2021/05/02 08:47:00;;;;;;;2.97;0.60;;;10.90;79.10;;;;;;5066179;28;20036;-59
2021/05/02 08:49:28;;;;;;;2.40;0.40;;;10.70;77.10;;;;;;5066640;28;20063;-60
2021/05/02 08:51:56;;;;;;;1.17;0.60;;;10.70;79.00;;;;;;5066246;28;20039;-60
2021/05/02 08:54:22;;;;;;;1.33;0.70;;;10.60;79.30;;;;;;5065310;28;20599;-60
2021/05/02 08:56:52;;;;;;;1.77;0.53;;;10.50;81.30;;;;;;5081206;28;20033;-60
2021/05/02 08:59:17;;;;;;;4.53;0.97;;;10.60;82.20;;;;;;5065373;28;20040;-60
2021/05/02 09:01:43;;;;;;;1.87;0.63;;;10.60;83.10;;;;;;5062779;28;20745;-60
2021/05/02 09:04:09;;;;;;;3.27;0.90;;;10.50;85.20;;;;;;5065549;28;20036;-60
2021/05/02 09:06:39;;;;;;;1.13;0.80;;;10.60;85.20;;;;;;5066130;28;20041;-60
2021/05/02 09:09:11;;;;;;;3.10;1.07;;;10.80;85.10;;;;;;5082130;28;20080;-60
2021/05/02 09:11:48;;;;;;;1.63;0.80;;;10.90;82.90;;;;;;5064221;28;20021;-59
2021/05/02 09:14:18;;;;;;;1.20;0.60;;;10.60;80.30;;;;;;5064928;28;20028;-59
2021/05/02 09:16:52;;;;;;;2.03;1.27;;;10.50;82.20;;;;;;5065528;28;20043;-59
2021/05/02 09:19:19;;;;;;;2.30;1.00;;;10.40;80.30;;;;;;5064235;28;20040;-59
2021/05/02 09:21:45;;;;;;;5.73;0.67;;;10.30;74.70;;;;;;5063972;28;20146;-60
2021/05/02 09:24:21;;;;;;;2.63;0.87;;;10.30;77.00;;;;;;5064667;28;20112;-59
2021/05/02 09:27:04;;;;;;;1.07;0.63;;;10.50;76.60;;;;;;5065193;28;20111;-59
2021/05/02 09:29:31;;;;;;;1.60;0.90;;;10.90;74.30;;;;;;5064880;28;20036;-59
2021/05/02 09:31:57;;;;;;;0.83;0.67;;;11.20;74.00;;;;;;5064776;28;20036;-60
2021/05/02 09:34:26;;;;;;;1.90;0.80;;;11.20;74.10;;;;;;5063877;28;20029;-58
2021/05/02 09:37:02;;;;;;;4.87;0.70;;;11.00;71.50;;;;;;5064840;28;20078;-59
2021/05/02 09:39:50;;;;;;;4.70;1.00;;;10.60;73.40;;;;;;5065687;28;20056;-59
2021/05/02 09:42:30;;;;;;;4.47;1.53;;;10.60;73.80;;;;;;5064375;28;20036;-59
2021/05/02 09:44:58;;;;;;;5.37;1.00;;;10.60;75.50;;;;;;5064831;28;20119;-59
2021/05/02 09:47:31;;;;;;;2.20;0.93;;;10.80;74.30;;;;;;5064458;28;20511;-59
2021/05/02 09:50:16;;;;;;;6.03;1.00;;;11.10;69.90;;;;;;5064488;28;20020;-59
2021/05/02 09:52:45;;;;;;;3.57;1.73;;;11.30;67.10;;;;;;5063813;28;20020;-59
2021/05/02 09:55:36;;;;;;;2.30;0.70;;;11.40;66.70;;;;;;5062595;28;20064;-59
2021/05/02 09:58:22;;;;;;;3.87;0.90;;;11.40;66.20;;;;;;5064253;28;20127;-59
2021/05/02 10:00:50;;;;;;;2.77;0.80;;;11.30;68.40;;;;;;5063896;28;20048;-59
2021/05/02 10:03:24;;;;;;;3.73;0.73;;;11.30;68.90;;;;;;5064917;28;20105;-60
2021/05/02 10:06:12;;;;;;;2.80;0.90;;;11.30;68.80;;;;;;5064851;28;20029;-59
2021/05/02 10:08:39;;;;;;;2.73;2.10;;;11.50;68.70;;;;;;5062808;28;20036;-61
2021/05/02 10:11:10;;;;;;;3.33;1.03;;;11.60;66.80;;;;;;5064853;28;20036;-59
2021/05/02 10:13:38;;;;;;;2.10;1.10;;;11.70;67.70;;;;;;5064742;28;20456;-61
2021/05/02 10:16:04;;;;;;;2.17;1.13;;;11.70;67.90;;;;;;5065768;28;20880;-60
2021/05/02 10:18:30;;;;;;;4.60;0.87;;;11.40;67.40;;;;;;5062236;28;20039;-60
2021/05/02 10:20:56;;;;;;;1.50;0.83;;;11.40;70.10;;;;;;5064761;28;20055;-61
2021/05/02 10:23:24;;;;;;;1.37;0.70;;;11.60;67.50;;;;;;5064449;28;20037;-62
2021/05/02 10:25:52;;;;;;;3.10;0.80;;;11.50;67.70;;;;;;5064527;28;20447;-60
2021/05/02 10:28:23;;;;;;;2.27;0.80;;;11.50;69.70;;;;;;5050274;28;20036;-60
2021/05/02 10:30:53;;;;;;;1.30;0.67;;;11.80;66.70;;;;;;5064868;28;20085;-60
2021/05/02 10:33:36;;;;;;;1.20;0.50;;;12.00;64.00;;;;;;5064622;28;20046;-61
2021/05/02 10:36:06;;;;;;;3.42;0.88;;;12.20;60.90;;;;;;5069035;28;20047;-59
2021/05/02 10:38:49;;;;;;;3.23;0.50;;;12.10;60.40;;;;;;5068230;28;20040;-60
2021/05/02 10:41:39;;;;;;;0.57;0.40;;;12.00;58.50;;;;;;5068733;28;20047;-58
2021/05/02 10:44:07;;;;;;;0.97;0.50;;;12.30;57.00;;;;;;5085805;28;20443;-59
2021/05/02 10:46:42;;;;;;;1.37;0.60;;;12.40;56.10;;;;;;5066428;28;20037;-59
2021/05/02 10:49:19;;;;;;;3.67;0.93;;;12.50;56.50;;;;;;5068453;28;20020;-59
2021/05/02 10:51:54;;;;;;;2.03;0.53;;;12.50;55.90;;;;;;5068674;28;20034;-58
2021/05/02 10:54:22;;;;;;;2.43;0.40;;;12.50;56.00;;;;;;5069734;28;20028;-59
2021/05/02 10:56:56;;;;;;;2.63;0.63;;;12.60;55.40;;;;;;5067897;28;20086;-59
2021/05/02 11:00:00;;;;;;;1.87;0.67;;;12.60;54.90;;;;;;5084519;28;20480;-59
2021/05/02 11:02:41;;;;;;;2.60;0.60;;;12.80;54.90;;;;;;5067844;28;20037;-59
2021/05/02 11:05:09;;;;;;;1.20;0.67;;;12.60;55.40;;;;;;5067492;28;20525;-60
2021/05/02 11:07:40;;;;;;;2.07;0.60;;;12.50;56.00;;;;;;5083473;28;20105;-59
2021/05/02 11:10:11;;;;;;;6.00;1.40;;;12.30;56.30;;;;;;5067819;28;20024;-59
2021/05/02 11:12:38;;;;;;;1.73;0.50;;;11.90;57.40;;;;;;5067745;28;20028;-60
2021/05/02 11:15:25;;;;;;;3.83;1.00;;;11.90;58.40;;;;;;5065831;28;20033;-59
2021/05/02 11:17:53;;;;;;;4.00;0.60;;;12.00;58.10;;;;;;5068132;28;20064;-59
2021/05/02 11:20:46;;;;;;;5.30;0.80;;;12.10;58.30;;;;;;5068155;28;20032;-59
2021/05/02 11:23:12;;;;;;;1.57;0.50;;;12.50;57.80;;;;;;5067060;28;20086;-59
2021/05/02 11:25:43;;;;;;;1.03;0.67;;;12.60;57.50;;;;;;5068154;28;20122;-59
2021/05/02 11:28:11;;;;;;;2.73;0.80;;;12.60;57.30;;;;;;5066471;28;20024;-60
2021/05/02 11:30:46;;;;;;;1.43;0.70;;;12.50;56.70;;;;;;5067765;28;20062;-60
2021/05/02 11:33:27;;;;;;;2.53;1.10;;;12.30;57.20;;;;;;5083820;28;20350;-60
2021/05/02 11:35:56;;;;;;;1.93;1.67;;;12.50;56.70;;;;;;5067970;28;20033;-59
2021/05/02 11:38:35;;;;;;;1.57;0.73;;;12.60;56.00;;;;;;5067808;28;20117;-59
2021/05/02 11:41:05;;;;;;;1.87;1.00;;;12.70;56.30;;;;;;5066791;28;20039;-58
2021/05/02 11:43:32;;;;;;;1.40;0.77;;;12.60;56.60;;;;;;5067781;28;20028;-59
2021/05/02 11:46:00;;;;;;;0.83;0.60;;;12.60;57.00;;;;;;5066612;28;20476;-59
2021/05/02 11:48:34;;;;;;;3.40;0.70;;;12.60;57.60;;;;;;5083422;28;20037;-59
2021/05/02 11:51:23;;;;;;;1.97;0.70;;;12.50;56.60;;;;;;5067051;28;20028;-59
2021/05/02 11:53:51;;;;;;;0.63;0.57;;;12.40;56.50;;;;;;5064094;28;20029;-58
2021/05/02 11:56:20;;;;;;;0.70;0.57;;;12.60;55.80;;;;;;5067064;28;20037;-59
2021/05/02 11:58:51;;;;;;;1.13;0.40;;;12.30;53.20;;;;;;5064319;28;20032;-59
2021/05/02 12:01:24;;;;;;;2.53;0.43;;;12.20;53.20;;;;;;5065289;28;20054;-58
2021/05/02 12:03:50;;;;;;;1.90;0.80;;;12.30;53.40;;;;;;5066995;28;20035;-59
2021/05/02 12:06:24;;;;;;;3.63;0.70;;;12.20;53.90;;;;;;5066899;28;20039;-58
2021/05/02 12:08:53;;;;;;;1.80;0.83;;;12.00;55.00;;;;;;5067328;28;20032;-59
2021/05/02 12:11:19;;;;;;;0.50;0.33;;;11.80;55.50;;;;;;5063883;28;20028;-59
2021/05/02 12:13:51;;;;;;;1.17;0.70;;;12.00;56.20;;;;;;5080919;28;20116;-58
2021/05/02 12:16:37;;;;;;;1.67;0.73;;;12.30;56.40;;;;;;5067589;28;20452;-59
2021/05/02 12:19:08;;;;;;;1.73;0.70;;;12.50;57.00;;;;;;5066715;28;20051;-64
2021/05/02 12:21:39;;;;;;;1.43;0.50;;;13.00;56.00;;;;;;5064941;28;20040;-59
2021/05/02 12:24:09;;;;;;;1.00;0.70;;;13.30;55.30;;;;;;5065854;28;20035;-59
2021/05/02 12:26:43;;;;;;;1.70;0.60;;;13.60;54.90;;;;;;5066230;28;20032;-58
2021/05/02 12:29:29;;;;;;;4.73;0.70;;;14.00;52.40;;;;;;5066279;28;20032;-59
2021/05/02 12:32:00;;;;;;;1.07;0.50;;;14.10;51.60;;;;;;5066310;28;20024;-61
2021/05/02 12:34:31;;;;;;;1.87;0.40;;;14.10;50.40;;;;;;5081423;28;20453;-58
2021/05/02 12:37:00;;;;;;;3.13;1.13;;;14.10;49.40;;;;;;5066741;28;20457;-61
2021/05/02 12:39:37;;;;;;;3.03;0.83;;;13.60;50.60;;;;;;5066480;28;20476;-59
2021/05/02 12:42:04;;;;;;;1.03;0.40;;;13.40;51.70;;;;;;5065884;28;20100;-59
2021/05/02 12:44:31;;;;;;;1.60;0.47;;;13.30;52.20;;;;;;5067211;28;20440;-59
2021/05/02 12:47:01;;;;;;;2.20;0.70;;;13.30;52.00;;;;;;5068557;28;20032;-59
2021/05/02 12:49:33;;;;;;;0.50;0.37;;;13.20;51.30;;;;;;5064346;28;20380;-59
2021/05/02 12:52:12;;;;;;;1.20;0.40;;;13.10;50.90;;;;;;5046805;28;20040;-59
2021/05/02 12:54:40;;;;;;;0.77;0.37;;;12.80;51.20;;;;;;5065565;28;20024;-58
2021/05/02 12:57:17;;;;;;;1.90;0.47;;;12.50;52.00;;;;;;5080105;28;20036;-58
2021/05/02 12:59:53;;;;;;;1.03;0.43;;;12.40;52.50;;;;;;5065663;28;20059;-59
2021/05/02 13:02:27;;;;;;;3.20;0.60;;;12.50;52.50;;;;;;5064807;28;20070;-58